createdAt,value
2023-03-10T00:00:13.855Z,123.70
2023-03-10T00:02:40.282Z,121.68
2023-03-10T00:05:06.546Z,120.60
2023-03-10T00:07:33.004Z,119.78
2023-03-10T00:09:59.370Z,115.95
2023-03-10T00:12:26.119Z,113.68
2023-03-10T00:14:52.567Z,106.85
2023-03-10T00:17:19.024Z,105.70
2023-03-10T00:19:45.435Z,105.15
2023-03-10T00:22:11.763Z,101.78
2023-03-10T00:24:38.173Z,103.68
2023-03-10T00:27:04.825Z,99.30
2023-03-10T00:29:31.251Z,95.85
2023-03-10T00:31:57.556Z,96.97
2023-03-10T00:34:24.322Z,90.25
2023-03-10T00:36:50.714Z,94.10
2023-03-10T00:39:17.061Z,89.97
2023-03-10T00:41:43.421Z,88.38
2023-03-10T00:44:09.786Z,90.03
2023-03-10T00:46:36.384Z,83.97
2023-03-10T00:49:02.866Z,82.70
2023-03-10T00:51:29.400Z,81.20
2023-03-10T00:53:55.837Z,80.38
2023-03-10T00:56:22.577Z,79.57
2023-03-10T00:58:48.996Z,77.35
2023-03-10T01:01:15.405Z,76.57
2023-03-10T01:03:41.742Z,74.93
2023-03-10T01:06:08.398Z,73.35
2023-03-10T01:08:34.817Z,71.57
2023-03-10T01:11:01.134Z,73.13
2023-03-10T01:13:27.457Z,71.85
2023-03-10T01:15:54.295Z,67.53
2023-03-10T01:18:20.818Z,67.07
2023-03-10T01:20:47.293Z,66.20
2023-03-10T01:23:13.824Z,62.60
2023-03-10T01:25:40.168Z,64.20
2023-03-10T01:28:06.596Z,61.15
2023-03-10T01:30:33.001Z,61.25
2023-03-10T01:32:59.338Z,60.28
2023-03-10T01:35:25.883Z,61.97
2023-03-10T01:37:52.692Z,59.97
2023-03-10T01:40:19.314Z,58.75
2023-03-10T01:42:45.795Z,55.97
2023-03-10T01:45:12.550Z,55.75
2023-03-10T01:47:38.865Z,55.78
2023-03-10T01:50:05.264Z,55.65
2023-03-10T01:52:31.991Z,53.72
2023-03-10T01:54:58.286Z,51.75
2023-03-10T01:57:24.606Z,51.90
2023-03-10T01:59:51.154Z,51.47
2023-03-10T02:02:17.889Z,50.10
2023-03-10T02:04:45.085Z,50.90
2023-03-10T02:07:11.399Z,50.47
2023-03-10T02:09:37.823Z,49.28
2023-03-10T02:12:04.910Z,49.03
2023-03-10T02:14:31.353Z,48.20
2023-03-10T02:16:57.812Z,48.08
2023-03-10T02:19:24.275Z,45.20
2023-03-10T02:21:50.791Z,43.95
2023-03-10T02:24:17.121Z,43.50
2023-03-10T02:26:43.686Z,43.50
2023-03-10T02:29:10.195Z,42.65
2023-03-10T02:31:36.493Z,43.83
2023-03-10T02:34:02.867Z,42.25
2023-03-10T02:36:29.243Z,41.75
2023-03-10T02:38:55.798Z,40.63
2023-03-10T02:41:22.149Z,40.92
2023-03-10T02:43:48.520Z,40.45
2023-03-10T02:46:15.161Z,40.55
2023-03-10T02:48:41.570Z,40.20
2023-03-10T02:51:07.889Z,39.08
2023-03-10T02:53:34.247Z,38.17
2023-03-10T02:56:00.655Z,38.28
2023-03-10T02:58:27.266Z,37.10
2023-03-10T03:00:53.711Z,36.63
2023-03-10T03:03:20.870Z,36.25
2023-03-10T03:05:47.209Z,36.53
2023-03-10T03:08:13.603Z,36.95
2023-03-10T03:10:39.980Z,34.92
2023-03-10T03:13:06.463Z,35.30
2023-03-10T03:15:33.427Z,35.20
2023-03-10T03:18:00.047Z,34.95
2023-03-10T03:20:26.792Z,33.47
2023-03-10T03:22:53.173Z,35.17
2023-03-10T03:25:19.756Z,34.40
2023-03-10T03:27:46.292Z,32.72
2023-03-10T03:30:13.555Z,32.33
2023-03-10T03:32:40.063Z,31.13
2023-03-10T03:35:06.772Z,31.65
2023-03-10T03:37:33.139Z,31.98
2023-03-10T03:40:00.002Z,33.30
2023-03-10T03:42:26.855Z,30.88
2023-03-10T03:44:53.417Z,30.08
2023-03-10T03:47:20.001Z,31.05
2023-03-10T03:49:46.706Z,30.67
2023-03-10T03:52:13.138Z,28.95
2023-03-10T03:54:39.629Z,30.55
2023-03-10T03:57:06.314Z,29.20
2023-03-10T03:59:32.702Z,29.52
2023-03-10T04:01:59.096Z,28.42
2023-03-10T04:04:25.608Z,28.20
2023-03-10T04:06:52.323Z,26.90
2023-03-10T04:09:18.731Z,28.27
2023-03-10T04:11:45.254Z,27.02
2023-03-10T04:14:11.663Z,26.80
2023-03-10T04:16:38.406Z,27.02
2023-03-10T04:19:05.102Z,26.95
2023-03-10T04:21:31.531Z,27.38
2023-03-10T04:23:57.933Z,26.50
2023-03-10T04:26:24.568Z,26.10
2023-03-10T04:28:50.975Z,25.63
2023-03-10T04:31:17.685Z,24.52
2023-03-10T04:33:44.665Z,25.67
2023-03-10T04:36:11.135Z,25.42
2023-03-10T04:38:37.619Z,24.83
2023-03-10T04:41:04.121Z,24.65
2023-03-10T04:43:30.706Z,24.90
2023-03-10T04:45:57.087Z,24.25
2023-03-10T04:48:23.410Z,23.55
2023-03-10T04:50:49.777Z,24.08
2023-03-10T04:53:16.194Z,23.23
2023-03-10T04:55:42.607Z,24.42
2023-03-10T04:58:09.102Z,23.13
2023-03-10T05:00:35.500Z,22.55
2023-03-10T05:03:02.070Z,21.90
2023-03-10T05:05:28.529Z,20.88
2023-03-10T05:07:55.145Z,22.00
2023-03-10T05:10:21.650Z,21.98
2023-03-10T05:12:48.605Z,22.65
2023-03-10T05:15:15.027Z,21.00
2023-03-10T05:17:41.422Z,22.02
2023-03-10T05:20:07.957Z,21.45
2023-03-10T05:22:34.255Z,20.63
2023-03-10T05:25:01.164Z,19.95
2023-03-10T05:27:27.942Z,20.45
2023-03-10T05:29:54.337Z,19.90
2023-03-10T05:32:21.041Z,20.08
2023-03-10T05:34:47.456Z,20.05
2023-03-10T05:37:13.920Z,19.88
2023-03-10T05:39:40.796Z,19.60
2023-03-10T05:42:07.599Z,18.95
2023-03-10T05:44:34.000Z,19.08
2023-03-10T05:47:00.507Z,18.73
2023-03-10T05:49:27.319Z,19.55
2023-03-10T05:51:53.679Z,18.63
2023-03-10T05:54:20.143Z,17.30
2023-03-10T05:56:46.623Z,17.30
2023-03-10T05:59:13.079Z,17.98
2023-03-10T06:01:39.757Z,18.15
2023-03-10T06:04:06.397Z,17.35
2023-03-10T06:06:33.450Z,16.88
2023-03-10T06:08:59.771Z,17.00
2023-03-10T06:11:26.438Z,13.23
2023-03-10T06:13:52.816Z,9.82
2023-03-10T06:16:19.207Z,7.97
2023-03-10T06:18:45.757Z,40.13
2023-03-10T06:21:12.904Z,110.00
2023-03-10T06:23:39.397Z,106.00
2023-03-10T06:26:06.111Z,99.97
2023-03-10T06:28:32.613Z,90.45
2023-03-10T06:30:58.959Z,85.55
2023-03-10T06:33:25.445Z,80.60
2023-03-10T06:35:52.043Z,76.38
2023-03-10T06:38:18.788Z,75.65
2023-03-10T06:40:45.732Z,71.30
2023-03-10T06:43:12.229Z,69.88
2023-03-10T06:45:39.204Z,67.10
2023-03-10T06:48:05.576Z,65.68
2023-03-10T06:50:31.883Z,65.78
2023-03-10T06:52:58.588Z,61.88
2023-03-10T06:55:25.082Z,63.25
2023-03-10T06:57:51.642Z,61.05
2023-03-10T07:00:18.389Z,60.90
2023-03-10T07:02:44.781Z,57.97
2023-03-10T07:05:11.268Z,59.13
2023-03-10T07:07:37.737Z,47.25
2023-03-10T07:10:06.984Z,48.53
2023-03-10T07:15:01.351Z,43.00
2023-03-10T07:17:27.784Z,41.38
2023-03-10T07:19:54.224Z,38.97
2023-03-10T07:22:20.556Z,38.85
2023-03-10T07:24:46.873Z,37.42
2023-03-10T07:27:13.297Z,36.95
2023-03-10T07:29:40.077Z,36.58
2023-03-10T07:32:06.412Z,36.65
2023-03-10T07:34:32.992Z,35.00
2023-03-10T07:36:59.494Z,36.75
2023-03-10T07:39:25.929Z,35.20
2023-03-10T07:41:52.302Z,34.92
2023-03-10T07:44:18.680Z,34.28
2023-03-10T07:46:45.272Z,36.25
2023-03-10T07:49:11.643Z,33.97
2023-03-10T07:51:38.095Z,33.58
2023-03-10T07:54:04.422Z,33.28
2023-03-10T07:56:31.411Z,33.70
2023-03-10T07:58:58.265Z,32.60
2023-03-10T08:01:24.733Z,31.65
2023-03-10T08:03:51.110Z,33.17
2023-03-10T08:06:17.957Z,31.35
2023-03-10T08:08:44.338Z,32.03
2023-03-10T08:11:10.952Z,30.83
2023-03-10T08:13:37.809Z,30.98
2023-03-10T08:16:04.378Z,30.52
2023-03-10T08:18:31.144Z,30.08
2023-03-10T08:20:57.579Z,30.27
2023-03-10T08:23:24.012Z,29.63
2023-03-10T08:25:50.325Z,28.52
2023-03-10T08:28:17.091Z,28.25
2023-03-10T08:30:57.296Z,27.23
2023-03-10T08:33:29.763Z,27.45
2023-03-10T08:35:56.227Z,28.05
2023-03-10T08:38:23.334Z,28.17
2023-03-10T08:40:49.693Z,28.27
2023-03-10T08:43:16.128Z,27.50
2023-03-10T08:45:42.563Z,26.33
2023-03-10T08:48:09.081Z,26.98
2023-03-10T08:50:35.842Z,26.80
2023-03-10T08:53:02.889Z,26.15
2023-03-10T08:55:29.478Z,25.63
2023-03-10T08:57:55.893Z,24.27
2023-03-10T09:00:22.437Z,26.20
2023-03-10T09:02:48.802Z,25.00
2023-03-10T09:05:15.233Z,24.77
2023-03-10T09:07:41.576Z,25.88
2023-03-10T09:10:08.206Z,24.98
2023-03-10T09:12:39.060Z,25.60
2023-03-10T09:17:32.378Z,27.20
2023-03-10T09:19:59.191Z,27.33
2023-03-10T09:22:25.624Z,26.85
2023-03-10T09:24:52.075Z,25.95
2023-03-10T09:27:19.120Z,28.45
2023-03-10T09:32:12.958Z,27.17
2023-03-10T09:34:39.703Z,27.05
2023-03-10T09:37:08.197Z,27.05
2023-03-10T09:39:35.295Z,27.77
2023-03-10T09:42:01.654Z,28.42
2023-03-10T09:44:28.051Z,27.90
2023-03-10T09:46:54.408Z,27.80
2023-03-10T09:49:20.686Z,28.10
2023-03-10T09:51:47.847Z,28.52
2023-03-10T09:54:14.683Z,29.02
2023-03-10T09:56:41.580Z,30.13
2023-03-10T09:59:08.235Z,30.20
2023-03-10T10:01:34.733Z,29.05
2023-03-10T10:04:01.726Z,29.27
2023-03-10T10:06:29.072Z,30.67
2023-03-10T10:09:04.266Z,28.58
2023-03-10T10:11:31.197Z,30.38
2023-03-10T10:13:59.097Z,28.20
2023-03-10T10:16:34.259Z,27.90
2023-03-10T10:19:01.391Z,28.05
2023-03-10T10:21:33.587Z,28.60
2023-03-10T10:24:07.640Z,27.23
2023-03-10T10:26:34.231Z,29.17
2023-03-10T10:29:00.566Z,26.65
2023-03-10T10:31:27.038Z,27.50
2023-03-10T10:33:53.582Z,27.27
2023-03-10T10:36:19.988Z,27.15
2023-03-10T10:38:46.575Z,26.85
2023-03-10T10:41:13.084Z,26.65
2023-03-10T10:43:39.455Z,27.50
2023-03-10T10:46:05.985Z,26.17
2023-03-10T10:48:32.399Z,25.70
2023-03-10T10:50:59.528Z,25.08
2023-03-10T10:53:26.532Z,24.15
2023-03-10T10:55:53.134Z,25.60
2023-03-10T10:58:19.987Z,24.98
2023-03-10T11:00:46.343Z,25.85
2023-03-10T11:03:12.999Z,24.45
2023-03-10T11:05:39.353Z,25.25
2023-03-10T11:08:05.938Z,24.60
2023-03-10T11:10:32.236Z,22.52
2023-03-10T11:12:58.661Z,24.90
2023-03-10T11:15:25.091Z,23.15
2023-03-10T11:17:51.442Z,23.23
2023-03-10T11:20:17.794Z,22.63
2023-03-10T11:22:44.283Z,22.30
2023-03-10T11:25:10.644Z,21.15
2023-03-10T11:27:37.594Z,23.45
2023-03-10T11:30:04.017Z,20.67
2023-03-10T11:32:30.468Z,21.52
2023-03-10T11:34:56.899Z,21.23
2023-03-10T11:37:23.685Z,20.33
2023-03-10T11:39:50.028Z,20.02
2023-03-10T11:42:16.420Z,20.05
2023-03-10T11:44:42.753Z,20.65
2023-03-10T11:47:09.153Z,19.85
2023-03-10T11:49:35.569Z,20.08
2023-03-10T11:52:01.914Z,19.42
2023-03-10T11:54:28.374Z,19.33
2023-03-10T11:56:55.510Z,18.73
2023-03-10T11:59:21.885Z,19.42
2023-03-10T12:01:48.182Z,18.73
2023-03-10T12:04:14.792Z,18.83
2023-03-10T12:06:41.242Z,18.75
2023-03-10T12:09:08.039Z,18.92
2023-03-10T12:11:35.369Z,18.48
2023-03-10T12:14:01.763Z,17.23
2023-03-10T12:16:28.385Z,16.88
2023-03-10T12:18:55.491Z,17.00
2023-03-10T12:21:22.056Z,18.00
2023-03-10T12:23:49.543Z,16.67
2023-03-10T12:26:16.047Z,17.08
2023-03-10T12:28:42.458Z,15.93
2023-03-10T12:31:09.542Z,17.23
2023-03-10T12:33:36.403Z,15.95
2023-03-10T12:36:02.812Z,14.90
2023-03-10T12:38:29.569Z,15.98
2023-03-10T12:40:56.178Z,15.82
2023-03-10T12:43:22.490Z,16.48
2023-03-10T12:45:48.977Z,15.52
2023-03-10T12:48:15.570Z,15.00
2023-03-10T12:50:41.939Z,14.70
2023-03-10T12:53:08.638Z,15.82
2023-03-10T12:55:34.917Z,15.25
2023-03-10T12:58:01.724Z,14.30
2023-03-10T13:00:28.108Z,14.27
2023-03-10T13:02:54.922Z,13.95
2023-03-10T13:05:21.810Z,15.45
2023-03-10T13:07:48.556Z,14.05
2023-03-10T13:10:14.927Z,13.93
2023-03-10T13:12:41.390Z,12.45
2023-03-10T13:15:07.749Z,12.85
2023-03-10T13:17:34.306Z,13.85
2023-03-10T13:20:01.290Z,13.73
2023-03-10T13:22:28.242Z,13.82
2023-03-10T13:24:54.967Z,13.30
2023-03-10T13:27:23.955Z,12.48
2023-03-10T13:29:51.424Z,12.52
2023-03-10T13:32:18.364Z,12.75
2023-03-10T13:34:44.778Z,12.57
2023-03-10T13:37:11.467Z,12.02
2023-03-10T13:39:38.823Z,13.10
2023-03-10T13:42:05.749Z,12.85
2023-03-10T13:44:32.440Z,12.68
2023-03-10T13:46:58.843Z,11.75
2023-03-10T13:49:25.526Z,12.15
2023-03-10T13:51:51.863Z,12.43
2023-03-10T13:54:18.777Z,11.63
2023-03-10T13:56:45.893Z,11.80
2023-03-10T13:59:12.690Z,12.38
2023-03-10T14:01:39.278Z,12.00
2023-03-10T14:04:05.776Z,11.55
2023-03-10T14:06:32.273Z,11.27
2023-03-10T14:08:58.694Z,11.35
2023-03-10T14:11:25.327Z,11.43
2023-03-10T14:13:51.962Z,11.93
2023-03-10T14:16:18.637Z,11.90
2023-03-10T14:18:45.506Z,10.98
2023-03-10T14:21:11.807Z,11.45
2023-03-10T14:23:38.697Z,11.50
2023-03-10T14:26:05.626Z,10.98
2023-03-10T14:28:32.110Z,11.90
2023-03-10T14:30:58.442Z,10.20
2023-03-10T14:33:24.985Z,9.50
2023-03-10T14:35:51.623Z,10.35
2023-03-10T14:38:18.635Z,9.90
2023-03-10T14:40:45.030Z,10.32
2023-03-10T14:43:11.863Z,11.30
2023-03-10T14:45:41.117Z,9.25
2023-03-10T14:48:08.647Z,10.10
2023-03-10T14:50:35.431Z,10.68
2023-03-10T14:53:02.379Z,9.68
2023-03-10T14:55:29.360Z,10.00
2023-03-10T14:57:56.373Z,10.05
2023-03-10T15:00:23.391Z,10.02
2023-03-10T15:02:49.852Z,10.00
2023-03-10T15:05:16.185Z,9.55
2023-03-10T15:07:42.568Z,9.82
2023-03-10T15:10:11.439Z,9.45
2023-03-10T15:12:38.639Z,9.27
2023-03-10T15:15:05.103Z,9.80
2023-03-10T15:17:31.944Z,9.10
2023-03-10T15:19:58.752Z,8.77
2023-03-10T15:22:25.509Z,9.18
2023-03-10T15:24:52.088Z,9.20
2023-03-10T15:27:19.060Z,8.88
2023-03-10T15:29:45.818Z,8.88
2023-03-10T15:32:12.212Z,9.73
2023-03-10T15:34:39.282Z,8.75
2023-03-10T15:37:05.608Z,8.18
2023-03-10T15:39:33.792Z,8.35
2023-03-10T15:42:01.619Z,8.47
2023-03-10T15:44:28.248Z,9.40
2023-03-10T15:46:54.907Z,8.73
2023-03-10T15:49:21.531Z,7.70
2023-03-10T15:51:47.961Z,8.38
2023-03-10T15:54:14.562Z,8.30
2023-03-10T15:56:41.537Z,365.75
2023-03-10T15:59:08.579Z,65.88
2023-03-10T16:01:34.993Z,147.57
2023-03-10T16:04:01.883Z,129.77
2023-03-10T16:06:28.552Z,120.40
2023-03-10T16:08:55.011Z,106.45
2023-03-10T16:11:21.403Z,99.97
2023-03-10T16:13:48.186Z,94.22
2023-03-10T16:16:14.873Z,223.20
2023-03-10T16:18:41.315Z,228.13
2023-03-10T16:21:07.833Z,199.00
2023-03-10T16:23:34.284Z,179.82
2023-03-10T16:26:01.197Z,171.70
2023-03-10T16:28:28.156Z,160.57
2023-03-10T16:30:54.920Z,153.95
2023-03-10T16:33:21.240Z,144.40
2023-03-10T16:35:48.040Z,137.05
2023-03-10T16:38:15.199Z,130.98
2023-03-10T16:40:41.544Z,122.63
2023-03-10T16:43:08.165Z,118.30
2023-03-10T16:45:35.159Z,107.82
2023-03-10T16:48:01.804Z,104.63
2023-03-10T16:50:28.395Z,97.75
2023-03-10T16:52:54.928Z,97.88
2023-03-10T16:55:21.517Z,170.90
2023-03-10T16:57:48.660Z,247.07
2023-03-10T17:00:15.120Z,226.57
2023-03-10T17:02:42.316Z,210.38
2023-03-10T17:05:08.948Z,211.02
2023-03-10T17:07:40.446Z,212.40
2023-03-10T17:10:09.777Z,191.00
2023-03-10T17:12:36.668Z,191.73
2023-03-10T17:15:03.091Z,169.48
2023-03-10T17:17:29.803Z,147.10
2023-03-10T17:19:56.224Z,144.45
2023-03-10T17:22:23.094Z,142.70
2023-03-10T17:24:49.662Z,142.43
2023-03-10T17:27:16.030Z,136.45
2023-03-10T17:29:42.397Z,138.00
2023-03-10T17:32:08.822Z,135.82
2023-03-10T17:34:35.850Z,128.85
2023-03-10T17:37:02.354Z,131.57
2023-03-10T17:39:29.910Z,128.00
2023-03-10T17:41:56.630Z,126.32
2023-03-10T17:44:22.992Z,123.13
2023-03-10T17:46:49.652Z,121.97
2023-03-10T17:49:16.187Z,121.43
2023-03-10T17:51:42.768Z,122.15
2023-03-10T17:54:09.578Z,120.47
2023-03-10T17:56:36.101Z,118.38
2023-03-10T17:59:02.961Z,117.20
2023-03-10T18:01:29.733Z,114.07
2023-03-10T18:03:56.174Z,115.18
2023-03-10T18:06:22.653Z,111.57
2023-03-10T18:08:49.075Z,109.47
2023-03-10T18:11:15.391Z,109.93
2023-03-10T18:13:41.741Z,103.88
2023-03-10T18:16:08.240Z,103.30
2023-03-10T18:18:35.157Z,99.97
2023-03-10T18:21:01.630Z,97.03
2023-03-10T18:23:27.984Z,94.20
2023-03-10T18:25:54.448Z,97.28
2023-03-10T18:28:20.962Z,92.90
2023-03-10T18:30:47.930Z,92.85
2023-03-10T18:33:14.300Z,89.07
2023-03-10T18:35:41.274Z,87.57
2023-03-10T18:38:07.752Z,87.47
2023-03-10T18:40:34.621Z,86.45
2023-03-10T18:43:01.095Z,85.57
2023-03-10T18:45:27.735Z,85.38
2023-03-10T18:47:54.134Z,84.72
2023-03-10T18:50:20.952Z,85.15
2023-03-10T18:52:47.600Z,81.95
2023-03-10T18:55:14.444Z,81.35
2023-03-10T18:57:40.813Z,79.90
2023-03-10T19:00:07.251Z,78.47
2023-03-10T19:02:34.082Z,79.40
2023-03-10T19:05:00.706Z,77.93
2023-03-10T19:07:27.776Z,76.10
2023-03-10T19:09:54.121Z,77.97
2023-03-10T19:12:20.504Z,76.65
2023-03-10T19:14:46.937Z,76.03
2023-03-10T19:17:13.565Z,73.25
2023-03-10T19:19:40.345Z,74.53
2023-03-10T19:22:07.553Z,73.47
2023-03-10T19:24:33.954Z,69.88
2023-03-10T19:27:00.483Z,69.15
2023-03-10T19:29:28.080Z,68.78
2023-03-10T19:31:54.979Z,68.30
2023-03-10T19:34:21.512Z,68.57
2023-03-10T19:36:48.921Z,67.85
2023-03-10T19:39:15.452Z,65.43
2023-03-10T19:41:41.748Z,65.88
2023-03-10T19:44:08.144Z,64.57
2023-03-10T19:46:34.681Z,64.03
2023-03-10T19:49:01.050Z,62.55
2023-03-10T19:51:27.660Z,63.83
2023-03-10T19:53:54.245Z,61.63
2023-03-10T19:56:20.635Z,60.45
2023-03-10T19:58:47.511Z,61.28
2023-03-10T20:01:14.126Z,59.22
2023-03-10T20:03:41.129Z,59.67
2023-03-10T20:06:07.876Z,61.78
2023-03-10T20:08:34.316Z,58.47
2023-03-10T20:11:00.679Z,58.42
2023-03-10T20:13:27.097Z,57.40
2023-03-10T20:15:53.481Z,55.75
2023-03-10T20:18:20.477Z,57.00
2023-03-10T20:20:46.839Z,56.45
2023-03-10T20:23:13.258Z,54.85
2023-03-10T20:25:39.692Z,53.28
2023-03-10T20:28:06.264Z,52.50
2023-03-10T20:30:32.648Z,53.70
2023-03-10T20:32:59.015Z,53.92
2023-03-10T20:35:25.406Z,51.78
2023-03-10T20:37:51.863Z,51.13
2023-03-10T20:40:18.164Z,50.58
2023-03-10T20:42:44.541Z,49.60
2023-03-10T20:45:10.910Z,49.00
2023-03-10T20:47:37.361Z,50.60
2023-03-10T20:50:04.319Z,49.38
2023-03-10T20:52:31.125Z,48.63
2023-03-10T20:54:57.929Z,49.13
2023-03-10T20:57:24.573Z,47.88
2023-03-10T20:59:51.518Z,46.90
2023-03-10T21:02:17.961Z,46.25
2023-03-10T21:04:44.803Z,46.85
2023-03-10T21:07:11.182Z,44.33
2023-03-10T21:09:37.872Z,45.92
2023-03-10T21:12:04.372Z,44.22
2023-03-10T21:14:30.754Z,42.47
2023-03-10T21:16:57.075Z,42.30
2023-03-10T21:19:23.508Z,41.90
2023-03-10T21:21:50.143Z,43.08
2023-03-10T21:24:16.531Z,41.35
2023-03-10T21:26:42.828Z,42.55
2023-03-10T21:29:10.152Z,40.83
2023-03-10T21:31:36.593Z,40.17
2023-03-10T21:34:02.912Z,41.53
2023-03-10T21:36:29.663Z,41.58
2023-03-10T21:38:56.150Z,39.03
2023-03-10T21:41:22.644Z,38.10
2023-03-10T21:43:50.020Z,38.85
2023-03-10T21:46:17.028Z,39.58
2023-03-10T21:48:44.373Z,38.28
2023-03-10T21:51:10.740Z,37.45
2023-03-10T21:53:37.626Z,39.03
2023-03-10T21:56:04.239Z,37.08
2023-03-10T21:58:30.571Z,37.78
2023-03-10T22:00:57.120Z,37.55
2023-03-10T22:03:23.873Z,37.75
2023-03-10T22:05:50.241Z,36.47
2023-03-10T22:08:16.882Z,36.15
2023-03-10T22:10:43.485Z,36.25
2023-03-10T22:13:09.950Z,34.25
2023-03-10T22:15:36.559Z,34.80
2023-03-10T22:18:03.132Z,34.28
2023-03-10T22:20:29.532Z,35.33
2023-03-10T22:22:56.662Z,33.65
2023-03-10T22:25:23.256Z,32.53
2023-03-10T22:27:49.545Z,33.92
2023-03-10T22:30:15.967Z,33.03
2023-03-10T22:32:42.457Z,32.20
2023-03-10T22:35:09.422Z,31.70
2023-03-10T22:37:35.755Z,30.85
2023-03-10T22:40:02.565Z,31.02
2023-03-10T22:42:28.902Z,32.53
2023-03-10T22:44:55.308Z,30.23
2023-03-10T22:47:21.644Z,29.55
2023-03-10T22:49:48.426Z,31.25
2023-03-10T22:52:14.741Z,31.77
2023-03-10T22:54:41.509Z,30.10
2023-03-10T22:57:08.190Z,29.50
2023-03-10T22:59:35.444Z,29.92
2023-03-10T23:02:01.768Z,28.33
2023-03-10T23:04:28.148Z,28.85
2023-03-10T23:06:54.482Z,28.95
2023-03-10T23:09:20.944Z,28.42
2023-03-10T23:11:47.692Z,27.85
2023-03-10T23:14:14.049Z,27.63
2023-03-10T23:16:41.157Z,27.90
2023-03-10T23:19:08.745Z,26.52
2023-03-10T23:21:35.146Z,26.98
2023-03-10T23:24:01.901Z,26.88
2023-03-10T23:26:28.305Z,25.65
2023-03-10T23:28:54.840Z,25.80
2023-03-10T23:31:21.670Z,25.42
2023-03-10T23:33:47.986Z,25.50
2023-03-10T23:36:14.377Z,24.98
2023-03-10T23:38:41.107Z,24.35
2023-03-10T23:41:07.568Z,24.20
2023-03-10T23:43:33.981Z,24.45
2023-03-10T23:46:00.702Z,24.25
2023-03-10T23:48:27.616Z,24.33
2023-03-10T23:50:53.962Z,23.88
2023-03-10T23:53:20.391Z,23.83
2023-03-10T23:55:47.233Z,22.17
2023-03-10T23:58:13.575Z,22.15
